Briefing drone pour Le puy-en-velay (LFHP)

Rechercher une autre localisation

Conditions de vol :


Nous sommes le : Samedi 17 avril 2021
Il est 17:22 UTC (19:22 LT)

Lever de soleil : 04:28 UTC (06:28 LT)
Coucher de soleil : 18:58 UTC (20:58 LT)

Météo

L'essentiel des conditions de vol

VIGILANCE MÉTÉO FRANCE - Haute-Loire (43)
Pas de vigilances particulieres
METAR de LFHP
LFHP 171700Z AUTO 36009KT CAVOK 07/M04 Q1016

Date d'émission: 17/04/2021
Heure d'émission: 17:00 UTC
Vent: 360° pour 9 KT (17 km/h)
Visibilité horizontale: > 10 km
Plafond : Plafond et visibilité OK (CAVOK)
Température: 7 °C
Point de rosée: -4 °C
Humidité: 45%
Pression (QNH): 1016 hPa
Prévision 24h pour Le puy-en-velay
Vent : 342° pour 3 KT (12 km/h)
Temperature Maxi: 5 °C
Temperature Min: 5 °C
Humidité : 87%
Condition : Légère pluie



Warning: count(): Parameter must be an array or an object that implements Countable in /homepages/6/d509196549/htdocs/droneoxygene/briefing.php on line 743
WEBCAM POUR LE PUY-EN-VELAY

Réglementation

Voler en sécurité

CARTES AERONAUTIQUE 1/500.000
CARTES VAC (LFHP)
SUP AIP




Chargement des AIP...
NOTAM (LE PUY-EN-VELAY + Terrain à proximité / FIR )




Chargement des NOTAMS...
CONTACT PREFECTURE 43


Avertissement : Les données mises à disposition sont indicatives. Oxygène Drone ne pourra être tenu responsable de dégâts causés aux biens et aux personnes.